Current | Forecast
Updated: 4:00 PM JST on April 26, 2017
Observed at Nagasaki Airport, Japan
Temperature 63°F
Humidity 94%
Dew Point 61°F
Wind West at 5 mph
Pressure 29.86 in (Steady)
Conditions Light Rain
Visibility 4.3 miles
UV 2 out of 16
Clouds (FEW) : 500 ft
Scattered Clouds (SCT) : 1500 ft
Mostly Cloudy (BKN) : 2500 ft
Yesterday's Maximum 75°F
Yesterday's Minimum 61°F approx.
Yesterday's Cooling Degree Days 3 approx.
Sunrise5:38 AM JST
Sunset6:59 PM JST
Moon Rise5:34 AM JST
Moon Set6:42 PM JST
Moon PhaseMoon Phase
Waning Crescent
Raw METARMETAR RJFU 260700Z 28004KT 230V310 7000 -RA FEW005 SCT015 BKN025 17/16 Q1011


Monday
. High: 66° F.
Tuesday
. High: 68° F.
Wednesday
. High: 66° F.
Thursday
. High: 66° F.
Friday
. High: 64° F.
Saturday
. High: 68° F.
Sunday
. High: 73° F.
Monday
. High: 73° F.

Units: English | Metric

Find the Weather for any City, State or Zipcode, or Country:

U.S. State List | Severe Weather | Tropical Storms | Ski Conditions
United States | Canada | Central America | South America | Asia | Europe | Australia | Africa | Islands

Weather Underground

© Copyright 2017
The Weather Company, LLC